sensor_id;sensor_type;location;lat;lon;timestamp;P1;durP1;ratioP1;P2;durP2;ratioP2
14789;SDS011;7486;51.010;10.366;2023-12-22T00:00:52;33.10;;;13.27;;
14789;SDS011;7486;51.010;10.366;2023-12-22T00:03:38;28.07;;;13.77;;
14789;SDS011;7486;51.010;10.366;2023-12-22T00:06:23;40.90;;;18.43;;
14789;SDS011;7486;51.010;10.366;2023-12-22T00:09:09;27.67;;;11.87;;
14789;SDS011;7486;51.010;10.366;2023-12-22T00:11:54;25.07;;;10.67;;
14789;SDS011;7486;51.010;10.366;2023-12-22T00:14:40;19.77;;;5.23;;
14789;SDS011;7486;51.010;10.366;2023-12-22T00:17:25;16.40;;;5.40;;
14789;SDS011;7486;51.010;10.366;2023-12-22T00:20:11;18.63;;;7.13;;
14789;SDS011;7486;51.010;10.366;2023-12-22T00:22:57;16.90;;;5.53;;
14789;SDS011;7486;51.010;10.366;2023-12-22T00:25:42;16.80;;;5.17;;
14789;SDS011;7486;51.010;10.366;2023-12-22T00:28:28;15.20;;;3.63;;
14789;SDS011;7486;51.010;10.366;2023-12-22T00:31:13;13.63;;;3.30;;
14789;SDS011;7486;51.010;10.366;2023-12-22T00:33:59;10.50;;;3.20;;
14789;SDS011;7486;51.010;10.366;2023-12-22T00:36:44;12.93;;;3.20;;
14789;SDS011;7486;51.010;10.366;2023-12-22T00:39:30;14.47;;;3.70;;
14789;SDS011;7486;51.010;10.366;2023-12-22T00:42:16;16.80;;;3.50;;
14789;SDS011;7486;51.010;10.366;2023-12-22T00:45:02;15.70;;;3.20;;
14789;SDS011;7486;51.010;10.366;2023-12-22T00:47:48;10.60;;;2.70;;
14789;SDS011;7486;51.010;10.366;2023-12-22T00:50:34;11.20;;;2.57;;
14789;SDS011;7486;51.010;10.366;2023-12-22T00:53:20;15.40;;;3.10;;
14789;SDS011;7486;51.010;10.366;2023-12-22T00:56:05;11.77;;;3.10;;
14789;SDS011;7486;51.010;10.366;2023-12-22T00:58:51;12.40;;;2.83;;
14789;SDS011;7486;51.010;10.366;2023-12-22T01:01:49;10.40;;;2.43;;
14789;SDS011;7486;51.010;10.366;2023-12-22T01:04:34;12.87;;;3.50;;
14789;SDS011;7486;51.010;10.366;2023-12-22T01:07:20;10.70;;;2.97;;
14789;SDS011;7486;51.010;10.366;2023-12-22T01:10:05;12.30;;;3.00;;
14789;SDS011;7486;51.010;10.366;2023-12-22T01:12:51;9.83;;;2.30;;
14789;SDS011;7486;51.010;10.366;2023-12-22T01:15:36;13.43;;;2.97;;
14789;SDS011;7486;51.010;10.366;2023-12-22T01:18:22;8.80;;;2.90;;
14789;SDS011;7486;51.010;10.366;2023-12-22T01:21:07;12.63;;;2.80;;
14789;SDS011;7486;51.010;10.366;2023-12-22T01:23:53;9.00;;;2.70;;
14789;SDS011;7486;51.010;10.366;2023-12-22T01:26:39;10.90;;;2.47;;
14789;SDS011;7486;51.010;10.366;2023-12-22T01:29:24;12.03;;;2.87;;
14789;SDS011;7486;51.010;10.366;2023-12-22T01:32:10;9.13;;;2.43;;
14789;SDS011;7486;51.010;10.366;2023-12-22T01:34:55;11.47;;;2.50;;
14789;SDS011;7486;51.010;10.366;2023-12-22T01:37:41;9.67;;;2.43;;
14789;SDS011;7486;51.010;10.366;2023-12-22T01:40:26;10.70;;;2.27;;
14789;SDS011;7486;51.010;10.366;2023-12-22T01:43:12;8.10;;;2.20;;
14789;SDS011;7486;51.010;10.366;2023-12-22T01:45:58;7.90;;;2.10;;
14789;SDS011;7486;51.010;10.366;2023-12-22T01:48:45;11.50;;;2.43;;
14789;SDS011;7486;51.010;10.366;2023-12-22T01:51:32;10.23;;;2.50;;
14789;SDS011;7486;51.010;10.366;2023-12-22T01:54:19;9.80;;;2.47;;
14789;SDS011;7486;51.010;10.366;2023-12-22T01:57:05;12.03;;;2.37;;
14789;SDS011;7486;51.010;10.366;2023-12-22T01:59:50;9.17;;;2.43;;
14789;SDS011;7486;51.010;10.366;2023-12-22T02:02:36;10.90;;;2.60;;
14789;SDS011;7486;51.010;10.366;2023-12-22T02:05:22;8.60;;;2.67;;
14789;SDS011;7486;51.010;10.366;2023-12-22T02:08:08;8.97;;;2.60;;
14789;SDS011;7486;51.010;10.366;2023-12-22T02:10:54;8.10;;;2.20;;
14789;SDS011;7486;51.010;10.366;2023-12-22T02:13:40;8.40;;;2.30;;
14789;SDS011;7486;51.010;10.366;2023-12-22T02:19:35;8.73;;;2.13;;
14789;SDS011;7486;51.010;10.366;2023-12-22T02:22:28;9.17;;;2.40;;
14789;SDS011;7486;51.010;10.366;2023-12-22T02:25:14;9.17;;;2.03;;
14789;SDS011;7486;51.010;10.366;2023-12-22T02:33:49;10.27;;;2.67;;
14789;SDS011;7486;51.010;10.366;2023-12-22T02:36:37;5.77;;;1.73;;
14789;SDS011;7486;51.010;10.366;2023-12-22T02:39:25;8.63;;;2.10;;
14789;SDS011;7486;51.010;10.366;2023-12-22T02:42:11;9.67;;;2.10;;
14789;SDS011;7486;51.010;10.366;2023-12-22T02:44:57;10.10;;;2.50;;
14789;SDS011;7486;51.010;10.366;2023-12-22T02:47:43;6.90;;;1.80;;
14789;SDS011;7486;51.010;10.366;2023-12-22T02:50:29;9.40;;;2.27;;
14789;SDS011;7486;51.010;10.366;2023-12-22T02:53:14;8.70;;;2.37;;
14789;SDS011;7486;51.010;10.366;2023-12-22T02:55:59;10.07;;;2.30;;
14789;SDS011;7486;51.010;10.366;2023-12-22T02:58:45;7.63;;;2.00;;
14789;SDS011;7486;51.010;10.366;2023-12-22T03:01:31;6.10;;;2.00;;
14789;SDS011;7486;51.010;10.366;2023-12-22T03:04:16;6.97;;;1.67;;
14789;SDS011;7486;51.010;10.366;2023-12-22T03:07:02;9.00;;;2.20;;
14789;SDS011;7486;51.010;10.366;2023-12-22T03:09:47;6.63;;;1.77;;
14789;SDS011;7486;51.010;10.366;2023-12-22T03:12:33;5.10;;;1.40;;
14789;SDS011;7486;51.010;10.366;2023-12-22T03:15:18;5.60;;;1.63;;
14789;SDS011;7486;51.010;10.366;2023-12-22T03:18:04;7.67;;;2.03;;
14789;SDS011;7486;51.010;10.366;2023-12-22T03:20:50;7.17;;;1.50;;
14789;SDS011;7486;51.010;10.366;2023-12-22T03:23:35;7.43;;;2.03;;
14789;SDS011;7486;51.010;10.366;2023-12-22T03:26:21;6.67;;;2.00;;
14789;SDS011;7486;51.010;10.366;2023-12-22T03:29:06;8.27;;;1.90;;
14789;SDS011;7486;51.010;10.366;2023-12-22T03:31:52;7.87;;;2.40;;
14789;SDS011;7486;51.010;10.366;2023-12-22T03:34:37;9.77;;;2.07;;
14789;SDS011;7486;51.010;10.366;2023-12-22T03:37:23;9.57;;;2.30;;
14789;SDS011;7486;51.010;10.366;2023-12-22T03:40:08;8.77;;;2.13;;
14789;SDS011;7486;51.010;10.366;2023-12-22T03:42:54;10.30;;;2.30;;
14789;SDS011;7486;51.010;10.366;2023-12-22T03:45:39;6.37;;;1.83;;
14789;SDS011;7486;51.010;10.366;2023-12-22T03:48:25;11.33;;;2.47;;
14789;SDS011;7486;51.010;10.366;2023-12-22T03:51:10;5.93;;;1.70;;
14789;SDS011;7486;51.010;10.366;2023-12-22T03:53:56;7.20;;;1.70;;
14789;SDS011;7486;51.010;10.366;2023-12-22T03:56:41;10.23;;;1.83;;
14789;SDS011;7486;51.010;10.366;2023-12-22T03:59:26;8.50;;;2.40;;
14789;SDS011;7486;51.010;10.366;2023-12-22T04:02:12;7.27;;;1.63;;
14789;SDS011;7486;51.010;10.366;2023-12-22T04:04:57;5.07;;;1.50;;
14789;SDS011;7486;51.010;10.366;2023-12-22T04:07:43;5.47;;;1.50;;
14789;SDS011;7486;51.010;10.366;2023-12-22T04:10:29;4.50;;;1.23;;
14789;SDS011;7486;51.010;10.366;2023-12-22T04:13:14;7.10;;;2.10;;
14789;SDS011;7486;51.010;10.366;2023-12-22T04:16:00;5.53;;;1.73;;
14789;SDS011;7486;51.010;10.366;2023-12-22T04:18:46;4.70;;;1.37;;
14789;SDS011;7486;51.010;10.366;2023-12-22T04:21:31;6.93;;;1.70;;
14789;SDS011;7486;51.010;10.366;2023-12-22T04:24:18;5.77;;;1.63;;
14789;SDS011;7486;51.010;10.366;2023-12-22T04:27:03;5.73;;;1.60;;
14789;SDS011;7486;51.010;10.366;2023-12-22T04:29:49;5.97;;;1.50;;
14789;SDS011;7486;51.010;10.366;2023-12-22T04:32:35;9.67;;;1.83;;
14789;SDS011;7486;51.010;10.366;2023-12-22T04:35:21;3.27;;;1.37;;
14789;SDS011;7486;51.010;10.366;2023-12-22T04:38:07;6.73;;;1.53;;
14789;SDS011;7486;51.010;10.366;2023-12-22T04:40:52;9.60;;;1.70;;
14789;SDS011;7486;51.010;10.366;2023-12-22T04:43:38;7.67;;;1.83;;
14789;SDS011;7486;51.010;10.366;2023-12-22T04:46:23;9.77;;;1.93;;
14789;SDS011;7486;51.010;10.366;2023-12-22T04:49:09;8.17;;;1.90;;
14789;SDS011;7486;51.010;10.366;2023-12-22T04:51:55;9.57;;;1.83;;
14789;SDS011;7486;51.010;10.366;2023-12-22T04:54:44;9.60;;;2.33;;
14789;SDS011;7486;51.010;10.366;2023-12-22T04:57:30;7.70;;;2.10;;
14789;SDS011;7486;51.010;10.366;2023-12-22T05:00:15;7.57;;;1.70;;
14789;SDS011;7486;51.010;10.366;2023-12-22T05:03:01;10.00;;;2.20;;
14789;SDS011;7486;51.010;10.366;2023-12-22T05:05:46;7.67;;;1.90;;
14789;SDS011;7486;51.010;10.366;2023-12-22T05:08:32;9.07;;;2.17;;
14789;SDS011;7486;51.010;10.366;2023-12-22T05:11:17;7.80;;;2.13;;
14789;SDS011;7486;51.010;10.366;2023-12-22T05:14:03;9.80;;;2.33;;
14789;SDS011;7486;51.010;10.366;2023-12-22T05:16:49;7.30;;;2.03;;
14789;SDS011;7486;51.010;10.366;2023-12-22T05:19:34;9.37;;;1.90;;
14789;SDS011;7486;51.010;10.366;2023-12-22T05:22:20;10.23;;;2.03;;
14789;SDS011;7486;51.010;10.366;2023-12-22T05:25:06;9.87;;;2.37;;
14789;SDS011;7486;51.010;10.366;2023-12-22T05:27:52;7.33;;;1.90;;
14789;SDS011;7486;51.010;10.366;2023-12-22T05:30:37;7.77;;;1.90;;
14789;SDS011;7486;51.010;10.366;2023-12-22T05:33:23;9.67;;;2.60;;
14789;SDS011;7486;51.010;10.366;2023-12-22T05:36:08;7.40;;;2.07;;
14789;SDS011;7486;51.010;10.366;2023-12-22T05:38:54;7.57;;;2.07;;
14789;SDS011;7486;51.010;10.366;2023-12-22T05:41:39;6.57;;;1.73;;
14789;SDS011;7486;51.010;10.366;2023-12-22T05:44:25;7.13;;;1.90;;
14789;SDS011;7486;51.010;10.366;2023-12-22T05:47:11;5.77;;;1.57;;
14789;SDS011;7486;51.010;10.366;2023-12-22T05:49:57;7.07;;;1.70;;
14789;SDS011;7486;51.010;10.366;2023-12-22T05:52:43;4.17;;;1.30;;
14789;SDS011;7486;51.010;10.366;2023-12-22T05:55:28;5.70;;;1.50;;
14789;SDS011;7486;51.010;10.366;2023-12-22T05:58:13;5.03;;;1.40;;
14789;SDS011;7486;51.010;10.366;2023-12-22T06:00:59;4.10;;;1.40;;
14789;SDS011;7486;51.010;10.366;2023-12-22T06:03:45;2.77;;;1.00;;
14789;SDS011;7486;51.010;10.366;2023-12-22T06:06:34;4.63;;;1.17;;
14789;SDS011;7486;51.010;10.366;2023-12-22T06:09:21;4.13;;;1.27;;
14789;SDS011;7486;51.010;10.366;2023-12-22T06:12:06;4.33;;;1.30;;
14789;SDS011;7486;51.010;10.366;2023-12-22T06:14:55;4.07;;;1.30;;
14789;SDS011;7486;51.010;10.366;2023-12-22T06:17:40;3.47;;;1.20;;
14789;SDS011;7486;51.010;10.366;2023-12-22T06:20:26;3.90;;;1.00;;
14789;SDS011;7486;51.010;10.366;2023-12-22T06:23:11;4.13;;;1.27;;
14789;SDS011;7486;51.010;10.366;2023-12-22T06:25:56;2.43;;;1.07;;
14789;SDS011;7486;51.010;10.366;2023-12-22T06:28:42;1.80;;;0.80;;
14789;SDS011;7486;51.010;10.366;2023-12-22T06:31:29;2.37;;;0.90;;
14789;SDS011;7486;51.010;10.366;2023-12-22T06:34:16;3.00;;;1.17;;
14789;SDS011;7486;51.010;10.366;2023-12-22T06:37:02;3.17;;;1.10;;
14789;SDS011;7486;51.010;10.366;2023-12-22T06:39:47;3.60;;;1.00;;
14789;SDS011;7486;51.010;10.366;2023-12-22T06:42:32;2.33;;;0.90;;
14789;SDS011;7486;51.010;10.366;2023-12-22T06:45:19;1.83;;;0.97;;
14789;SDS011;7486;51.010;10.366;2023-12-22T06:48:04;2.60;;;0.80;;
14789;SDS011;7486;51.010;10.366;2023-12-22T06:50:50;2.70;;;0.70;;
14789;SDS011;7486;51.010;10.366;2023-12-22T06:53:36;2.67;;;0.73;;
14789;SDS011;7486;51.010;10.366;2023-12-22T06:56:22;2.50;;;1.00;;
14789;SDS011;7486;51.010;10.366;2023-12-22T06:59:09;3.20;;;0.90;;
14789;SDS011;7486;51.010;10.366;2023-12-22T07:01:55;3.10;;;1.00;;
14789;SDS011;7486;51.010;10.366;2023-12-22T07:05:03;3.00;;;0.90;;
14789;SDS011;7486;51.010;10.366;2023-12-22T07:08:05;3.30;;;1.07;;
14789;SDS011;7486;51.010;10.366;2023-12-22T07:10:50;3.20;;;1.00;;
14789;SDS011;7486;51.010;10.366;2023-12-22T07:13:36;3.70;;;1.10;;
14789;SDS011;7486;51.010;10.366;2023-12-22T07:16:22;2.30;;;0.87;;
14789;SDS011;7486;51.010;10.366;2023-12-22T07:19:08;3.57;;;1.10;;
14789;SDS011;7486;51.010;10.366;2023-12-22T07:21:53;5.50;;;1.20;;
14789;SDS011;7486;51.010;10.366;2023-12-22T07:24:39;4.37;;;1.07;;
14789;SDS011;7486;51.010;10.366;2023-12-22T07:27:24;3.23;;;1.00;;
14789;SDS011;7486;51.010;10.366;2023-12-22T07:30:11;6.73;;;1.60;;
14789;SDS011;7486;51.010;10.366;2023-12-22T07:32:57;4.67;;;1.30;;
14789;SDS011;7486;51.010;10.366;2023-12-22T07:35:43;5.13;;;1.57;;
14789;SDS011;7486;51.010;10.366;2023-12-22T07:38:29;7.50;;;1.47;;
14789;SDS011;7486;51.010;10.366;2023-12-22T07:41:15;5.00;;;1.50;;
14789;SDS011;7486;51.010;10.366;2023-12-22T07:44:02;5.63;;;1.70;;
14789;SDS011;7486;51.010;10.366;2023-12-22T07:46:58;7.10;;;1.53;;
14789;SDS011;7486;51.010;10.366;2023-12-22T07:49:47;3.90;;;1.40;;
14789;SDS011;7486;51.010;10.366;2023-12-22T07:52:32;4.53;;;1.00;;
14789;SDS011;7486;51.010;10.366;2023-12-22T07:55:18;4.90;;;1.40;;
14789;SDS011;7486;51.010;10.366;2023-12-22T07:58:07;5.90;;;1.33;;
14789;SDS011;7486;51.010;10.366;2023-12-22T08:00:52;5.50;;;1.30;;
14789;SDS011;7486;51.010;10.366;2023-12-22T08:03:38;4.90;;;1.60;;
14789;SDS011;7486;51.010;10.366;2023-12-22T08:06:24;7.47;;;1.83;;
14789;SDS011;7486;51.010;10.366;2023-12-22T08:09:09;6.77;;;1.70;;
14789;SDS011;7486;51.010;10.366;2023-12-22T08:11:55;5.03;;;1.40;;
14789;SDS011;7486;51.010;10.366;2023-12-22T08:14:40;3.83;;;1.27;;
14789;SDS011;7486;51.010;10.366;2023-12-22T08:17:26;4.67;;;1.33;;
14789;SDS011;7486;51.010;10.366;2023-12-22T08:20:15;3.50;;;1.40;;
14789;SDS011;7486;51.010;10.366;2023-12-22T08:23:07;4.37;;;1.20;;
14789;SDS011;7486;51.010;10.366;2023-12-22T08:25:56;4.57;;;1.30;;
14789;SDS011;7486;51.010;10.366;2023-12-22T08:28:42;7.13;;;1.50;;
14789;SDS011;7486;51.010;10.366;2023-12-22T08:31:27;4.73;;;1.03;;
14789;SDS011;7486;51.010;10.366;2023-12-22T08:34:12;6.13;;;1.50;;
14789;SDS011;7486;51.010;10.366;2023-12-22T08:36:58;5.33;;;1.40;;
14789;SDS011;7486;51.010;10.366;2023-12-22T08:39:44;4.77;;;1.30;;
14789;SDS011;7486;51.010;10.366;2023-12-22T08:42:30;4.10;;;1.40;;
14789;SDS011;7486;51.010;10.366;2023-12-22T08:45:15;6.93;;;1.50;;
14789;SDS011;7486;51.010;10.366;2023-12-22T08:48:02;7.57;;;2.00;;
14789;SDS011;7486;51.010;10.366;2023-12-22T08:50:48;13.23;;;4.13;;
14789;SDS011;7486;51.010;10.366;2023-12-22T08:53:34;7.43;;;2.67;;
14789;SDS011;7486;51.010;10.366;2023-12-22T08:56:19;6.93;;;2.27;;
14789;SDS011;7486;51.010;10.366;2023-12-22T08:59:05;7.23;;;2.57;;
14789;SDS011;7486;51.010;10.366;2023-12-22T09:01:50;9.00;;;3.03;;
14789;SDS011;7486;51.010;10.366;2023-12-22T09:04:36;7.83;;;2.80;;
14789;SDS011;7486;51.010;10.366;2023-12-22T09:07:21;5.73;;;2.47;;
14789;SDS011;7486;51.010;10.366;2023-12-22T09:10:07;6.97;;;2.40;;
14789;SDS011;7486;51.010;10.366;2023-12-22T09:12:53;8.10;;;2.23;;
14789;SDS011;7486;51.010;10.366;2023-12-22T09:15:38;7.97;;;2.30;;
14789;SDS011;7486;51.010;10.366;2023-12-22T09:18:24;9.27;;;2.17;;
14789;SDS011;7486;51.010;10.366;2023-12-22T09:21:09;4.57;;;1.60;;
14789;SDS011;7486;51.010;10.366;2023-12-22T09:23:55;6.50;;;1.70;;
14789;SDS011;7486;51.010;10.366;2023-12-22T09:26:41;7.43;;;1.80;;
14789;SDS011;7486;51.010;10.366;2023-12-22T09:29:26;5.70;;;1.80;;
14789;SDS011;7486;51.010;10.366;2023-12-22T09:32:11;7.27;;;2.13;;
14789;SDS011;7486;51.010;10.366;2023-12-22T09:34:57;7.30;;;2.17;;
14789;SDS011;7486;51.010;10.366;2023-12-22T09:37:43;4.90;;;1.67;;
14789;SDS011;7486;51.010;10.366;2023-12-22T09:40:28;6.73;;;1.67;;
14789;SDS011;7486;51.010;10.366;2023-12-22T09:43:15;4.63;;;1.20;;
14789;SDS011;7486;51.010;10.366;2023-12-22T09:46:01;8.40;;;1.80;;
14789;SDS011;7486;51.010;10.366;2023-12-22T09:48:47;6.43;;;2.20;;
14789;SDS011;7486;51.010;10.366;2023-12-22T09:51:36;4.17;;;2.30;;
14789;SDS011;7486;51.010;10.366;2023-12-22T09:54:22;4.07;;;2.10;;
14789;SDS011;7486;51.010;10.366;2023-12-22T09:57:09;6.87;;;2.40;;
14789;SDS011;7486;51.010;10.366;2023-12-22T10:00:10;5.90;;;2.00;;
14789;SDS011;7486;51.010;10.366;2023-12-22T10:02:56;5.23;;;1.47;;
14789;SDS011;7486;51.010;10.366;2023-12-22T10:05:42;3.20;;;1.10;;
14789;SDS011;7486;51.010;10.366;2023-12-22T10:08:28;4.50;;;1.23;;
14789;SDS011;7486;51.010;10.366;2023-12-22T10:11:14;3.93;;;1.27;;
14789;SDS011;7486;51.010;10.366;2023-12-22T10:14:00;2.30;;;0.77;;
14789;SDS011;7486;51.010;10.366;2023-12-22T10:16:50;3.37;;;1.00;;
14789;SDS011;7486;51.010;10.366;2023-12-22T10:19:37;2.80;;;1.10;;
14789;SDS011;7486;51.010;10.366;2023-12-22T10:22:25;1.90;;;0.90;;
14789;SDS011;7486;51.010;10.366;2023-12-22T10:25:10;1.87;;;0.67;;
14789;SDS011;7486;51.010;10.366;2023-12-22T10:27:57;2.27;;;0.80;;
14789;SDS011;7486;51.010;10.366;2023-12-22T10:30:46;0.77;;;0.70;;
14789;SDS011;7486;51.010;10.366;2023-12-22T10:33:34;3.47;;;1.03;;
14789;SDS011;7486;51.010;10.366;2023-12-22T10:36:19;2.20;;;0.90;;
14789;SDS011;7486;51.010;10.366;2023-12-22T10:39:05;1.27;;;0.70;;
14789;SDS011;7486;51.010;10.366;2023-12-22T10:41:53;2.60;;;1.00;;
14789;SDS011;7486;51.010;10.366;2023-12-22T10:44:39;2.47;;;0.70;;
14789;SDS011;7486;51.010;10.366;2023-12-22T10:47:25;1.93;;;0.90;;
14789;SDS011;7486;51.010;10.366;2023-12-22T10:50:14;3.17;;;1.00;;
14789;SDS011;7486;51.010;10.366;2023-12-22T10:53:00;4.20;;;1.00;;
14789;SDS011;7486;51.010;10.366;2023-12-22T10:55:46;2.17;;;0.80;;
14789;SDS011;7486;51.010;10.366;2023-12-22T10:58:31;2.97;;;0.93;;
14789;SDS011;7486;51.010;10.366;2023-12-22T11:01:17;2.03;;;1.00;;
14789;SDS011;7486;51.010;10.366;2023-12-22T11:04:09;3.20;;;1.00;;
14789;SDS011;7486;51.010;10.366;2023-12-22T11:06:58;2.77;;;1.20;;
14789;SDS011;7486;51.010;10.366;2023-12-22T11:09:47;3.33;;;1.17;;
14789;SDS011;7486;51.010;10.366;2023-12-22T11:12:36;2.17;;;1.00;;
14789;SDS011;7486;51.010;10.366;2023-12-22T11:15:22;3.87;;;1.10;;
14789;SDS011;7486;51.010;10.366;2023-12-22T11:18:10;2.07;;;1.10;;
14789;SDS011;7486;51.010;10.366;2023-12-22T11:20:56;4.23;;;1.20;;
14789;SDS011;7486;51.010;10.366;2023-12-22T11:23:42;2.50;;;1.07;;
14789;SDS011;7486;51.010;10.366;2023-12-22T11:26:30;2.40;;;1.00;;
14789;SDS011;7486;51.010;10.366;2023-12-22T11:29:16;2.80;;;1.33;;
14789;SDS011;7486;51.010;10.366;2023-12-22T11:32:03;2.63;;;1.10;;
14789;SDS011;7486;51.010;10.366;2023-12-22T11:34:50;1.20;;;0.90;;
14789;SDS011;7486;51.010;10.366;2023-12-22T11:37:37;3.17;;;1.00;;
14789;SDS011;7486;51.010;10.366;2023-12-22T11:40:24;2.87;;;1.10;;
14789;SDS011;7486;51.010;10.366;2023-12-22T11:43:09;1.83;;;1.13;;
14789;SDS011;7486;51.010;10.366;2023-12-22T11:45:56;1.93;;;0.90;;
14789;SDS011;7486;51.010;10.366;2023-12-22T11:48:51;1.80;;;1.10;;
14789;SDS011;7486;51.010;10.366;2023-12-22T11:51:37;2.90;;;1.00;;
14789;SDS011;7486;51.010;10.366;2023-12-22T11:57:36;2.13;;;1.20;;
14789;SDS011;7486;51.010;10.366;2023-12-22T12:03:08;1.77;;;1.00;;
14789;SDS011;7486;51.010;10.366;2023-12-22T12:09:05;2.27;;;1.00;;
14789;SDS011;7486;51.010;10.366;2023-12-22T12:14:40;2.17;;;1.10;;
14789;SDS011;7486;51.010;10.366;2023-12-22T12:17:28;0.60;;;0.60;;
14789;SDS011;7486;51.010;10.366;2023-12-22T12:20:14;1.00;;;0.90;;
14789;SDS011;7486;51.010;10.366;2023-12-22T12:23:01;1.33;;;0.70;;
14789;SDS011;7486;51.010;10.366;2023-12-22T12:25:47;1.80;;;0.73;;
14789;SDS011;7486;51.010;10.366;2023-12-22T12:28:33;0.90;;;0.77;;
14789;SDS011;7486;51.010;10.366;2023-12-22T12:31:21;1.33;;;0.70;;
14789;SDS011;7486;51.010;10.366;2023-12-22T12:34:20;1.73;;;0.80;;
14789;SDS011;7486;51.010;10.366;2023-12-22T12:37:08;2.30;;;0.90;;
14789;SDS011;7486;51.010;10.366;2023-12-22T12:39:56;2.73;;;0.80;;
14789;SDS011;7486;51.010;10.366;2023-12-22T12:42:44;2.20;;;0.97;;
14789;SDS011;7486;51.010;10.366;2023-12-22T12:45:30;2.60;;;0.70;;
14789;SDS011;7486;51.010;10.366;2023-12-22T12:48:16;1.13;;;0.70;;
14789;SDS011;7486;51.010;10.366;2023-12-22T12:51:04;1.23;;;0.60;;
14789;SDS011;7486;51.010;10.366;2023-12-22T12:53:51;0.97;;;0.70;;
14789;SDS011;7486;51.010;10.366;2023-12-22T12:56:39;1.43;;;0.60;;
14789;SDS011;7486;51.010;10.366;2023-12-22T12:59:26;0.60;;;0.60;;
14789;SDS011;7486;51.010;10.366;2023-12-22T13:02:12;0.70;;;0.60;;
14789;SDS011;7486;51.010;10.366;2023-12-22T13:04:58;0.50;;;0.50;;
14789;SDS011;7486;51.010;10.366;2023-12-22T13:07:44;0.70;;;0.60;;
14789;SDS011;7486;51.010;10.366;2023-12-22T13:10:30;1.30;;;0.60;;
14789;SDS011;7486;51.010;10.366;2023-12-22T13:13:16;0.80;;;0.60;;
14789;SDS011;7486;51.010;10.366;2023-12-22T13:16:01;0.90;;;0.70;;
14789;SDS011;7486;51.010;10.366;2023-12-22T13:18:48;1.00;;;0.80;;
14789;SDS011;7486;51.010;10.366;2023-12-22T13:21:33;0.63;;;0.50;;
14789;SDS011;7486;51.010;10.366;2023-12-22T13:24:19;2.27;;;0.90;;
14789;SDS011;7486;51.010;10.366;2023-12-22T13:27:05;1.13;;;0.80;;
14789;SDS011;7486;51.010;10.366;2023-12-22T13:29:51;0.83;;;0.57;;
14789;SDS011;7486;51.010;10.366;2023-12-22T13:32:36;1.23;;;0.60;;
14789;SDS011;7486;51.010;10.366;2023-12-22T13:35:23;1.37;;;0.63;;
14789;SDS011;7486;51.010;10.366;2023-12-22T13:38:09;1.33;;;0.80;;
14789;SDS011;7486;51.010;10.366;2023-12-22T13:40:57;0.70;;;0.67;;
14789;SDS011;7486;51.010;10.366;2023-12-22T13:43:43;1.83;;;1.03;;
14789;SDS011;7486;51.010;10.366;2023-12-22T13:46:28;1.67;;;0.90;;
14789;SDS011;7486;51.010;10.366;2023-12-22T13:49:14;0.77;;;0.70;;
14789;SDS011;7486;51.010;10.366;2023-12-22T13:52:00;0.83;;;0.67;;
14789;SDS011;7486;51.010;10.366;2023-12-22T13:54:46;0.73;;;0.60;;
14789;SDS011;7486;51.010;10.366;2023-12-22T13:57:32;2.10;;;0.50;;
14789;SDS011;7486;51.010;10.366;2023-12-22T14:03:05;0.60;;;0.60;;
14789;SDS011;7486;51.010;10.366;2023-12-22T14:05:53;1.30;;;0.70;;
14789;SDS011;7486;51.010;10.366;2023-12-22T14:08:39;0.47;;;0.40;;
14789;SDS011;7486;51.010;10.366;2023-12-22T14:11:25;0.83;;;0.57;;
14789;SDS011;7486;51.010;10.366;2023-12-22T14:14:14;0.83;;;0.50;;
14789;SDS011;7486;51.010;10.366;2023-12-22T14:16:59;0.97;;;0.87;;
14789;SDS011;7486;51.010;10.366;2023-12-22T14:19:46;2.13;;;1.43;;
14789;SDS011;7486;51.010;10.366;2023-12-22T14:22:31;2.60;;;1.60;;
14789;SDS011;7486;51.010;10.366;2023-12-22T14:25:17;0.80;;;0.80;;
14789;SDS011;7486;51.010;10.366;2023-12-22T14:28:03;0.93;;;0.67;;
14789;SDS011;7486;51.010;10.366;2023-12-22T14:30:49;0.77;;;0.60;;
14789;SDS011;7486;51.010;10.366;2023-12-22T14:33:35;0.83;;;0.60;;
14789;SDS011;7486;51.010;10.366;2023-12-22T14:36:21;1.03;;;0.60;;
14789;SDS011;7486;51.010;10.366;2023-12-22T14:39:06;0.90;;;0.60;;
14789;SDS011;7486;51.010;10.366;2023-12-22T14:41:52;0.50;;;0.50;;
14789;SDS011;7486;51.010;10.366;2023-12-22T14:44:38;0.50;;;0.50;;
14789;SDS011;7486;51.010;10.366;2023-12-22T14:47:23;0.50;;;0.50;;
14789;SDS011;7486;51.010;10.366;2023-12-22T14:50:09;0.50;;;0.50;;
14789;SDS011;7486;51.010;10.366;2023-12-22T14:52:54;1.27;;;0.63;;
14789;SDS011;7486;51.010;10.366;2023-12-22T14:55:40;0.50;;;0.50;;
14789;SDS011;7486;51.010;10.366;2023-12-22T14:58:26;1.20;;;1.10;;
14789;SDS011;7486;51.010;10.366;2023-12-22T15:01:12;5.83;;;3.30;;
14789;SDS011;7486;51.010;10.366;2023-12-22T15:03:58;9.97;;;6.13;;
14789;SDS011;7486;51.010;10.366;2023-12-22T15:06:45;1.40;;;1.30;;
14789;SDS011;7486;51.010;10.366;2023-12-22T15:09:31;4.40;;;3.80;;
14789;SDS011;7486;51.010;10.366;2023-12-22T15:12:17;33.03;;;24.47;;
14789;SDS011;7486;51.010;10.366;2023-12-22T15:15:03;43.03;;;31.13;;
14789;SDS011;7486;51.010;10.366;2023-12-22T15:17:49;39.80;;;34.97;;
14789;SDS011;7486;51.010;10.366;2023-12-22T15:20:35;23.70;;;21.47;;
14789;SDS011;7486;51.010;10.366;2023-12-22T15:23:20;42.43;;;38.57;;
14789;SDS011;7486;51.010;10.366;2023-12-22T15:26:06;19.97;;;18.17;;
14789;SDS011;7486;51.010;10.366;2023-12-22T15:28:51;31.83;;;29.17;;
14789;SDS011;7486;51.010;10.366;2023-12-22T15:31:37;5.83;;;5.43;;
14789;SDS011;7486;51.010;10.366;2023-12-22T15:34:23;4.40;;;4.00;;
14789;SDS011;7486;51.010;10.366;2023-12-22T15:37:09;6.07;;;3.20;;
14789;SDS011;7486;51.010;10.366;2023-12-22T15:39:54;2.90;;;2.50;;
14789;SDS011;7486;51.010;10.366;2023-12-22T15:42:40;2.17;;;1.97;;
14789;SDS011;7486;51.010;10.366;2023-12-22T15:45:26;3.87;;;3.53;;
14789;SDS011;7486;51.010;10.366;2023-12-22T15:48:13;4.90;;;2.90;;
14789;SDS011;7486;51.010;10.366;2023-12-22T15:51:12;2.90;;;1.70;;
14789;SDS011;7486;51.010;10.366;2023-12-22T15:53:59;2.00;;;1.70;;
14789;SDS011;7486;51.010;10.366;2023-12-22T15:56:45;1.93;;;1.50;;
14789;SDS011;7486;51.010;10.366;2023-12-22T15:59:30;1.50;;;1.40;;
14789;SDS011;7486;51.010;10.366;2023-12-22T16:02:16;2.67;;;1.60;;
14789;SDS011;7486;51.010;10.366;2023-12-22T16:05:02;2.70;;;1.50;;
14789;SDS011;7486;51.010;10.366;2023-12-22T16:07:47;3.10;;;1.33;;
14789;SDS011;7486;51.010;10.366;2023-12-22T16:10:33;2.17;;;1.70;;
14789;SDS011;7486;51.010;10.366;2023-12-22T16:13:18;3.20;;;1.50;;
14789;SDS011;7486;51.010;10.366;2023-12-22T16:16:04;1.30;;;1.20;;
14789;SDS011;7486;51.010;10.366;2023-12-22T16:18:49;1.83;;;1.20;;
14789;SDS011;7486;51.010;10.366;2023-12-22T16:21:39;3.00;;;1.27;;
14789;SDS011;7486;51.010;10.366;2023-12-22T16:24:26;1.97;;;1.40;;
14789;SDS011;7486;51.010;10.366;2023-12-22T16:27:11;3.33;;;1.73;;
14789;SDS011;7486;51.010;10.366;2023-12-22T16:29:57;4.97;;;4.17;;
14789;SDS011;7486;51.010;10.366;2023-12-22T16:32:42;32.73;;;25.30;;
14789;SDS011;7486;51.010;10.366;2023-12-22T16:35:28;37.30;;;29.50;;
14789;SDS011;7486;51.010;10.366;2023-12-22T16:38:13;17.53;;;15.73;;
14789;SDS011;7486;51.010;10.366;2023-12-22T16:41:01;3.00;;;2.80;;
14789;SDS011;7486;51.010;10.366;2023-12-22T16:43:47;2.00;;;1.57;;
14789;SDS011;7486;51.010;10.366;2023-12-22T16:46:33;1.10;;;1.00;;
14789;SDS011;7486;51.010;10.366;2023-12-22T16:49:19;1.70;;;1.60;;
14789;SDS011;7486;51.010;10.366;2023-12-22T16:52:04;1.63;;;1.53;;
14789;SDS011;7486;51.010;10.366;2023-12-22T16:54:50;2.07;;;1.87;;
14789;SDS011;7486;51.010;10.366;2023-12-22T16:57:36;2.07;;;1.87;;
14789;SDS011;7486;51.010;10.366;2023-12-22T17:00:24;1.60;;;1.50;;
14789;SDS011;7486;51.010;10.366;2023-12-22T17:03:10;1.30;;;1.20;;